Wrightwood, California
Current Conditions -  °F | °C
As of 2:55 AM on Saturday 20 Dec 2014 (Local Time) from KGXA Reporting Station
Broken Clouds Broken Clouds  
Wind Chill: 36°   Ceiling: 22000
Heat Index: 39°   Visibility: 10mi
Dew Point: 33°   Wind: 5mph
Humidity: 80%   Direction: 320°NW
Pressure: 30.13"   Gusts: NA
Location:  34.36°N, 117.63°W
Report Text: KGXA 201055Z AUTO 32004KT 10SM BKN220 04/01 A3013 RMK AO2 SLP223 T00400008 TSNO $
Loading
Personal Weather Stations






























Interactive Weather Map New forecast layout! Learn more

10-Day Weather Forecast

Advertisements
Track Severe Weather on mobile